Time;durP1;ratioP1;P1;durP2;ratioP2;P2;SDS_P1;SDS_P2;PMS_P1;PMS_P2;Temp;Humidity;BMP_temperature;BMP_pressure;BME280_temperature;BME280_humidity;BME280_pressure;Samples;Min_cycle;Max_cycle;Signal;HPM_P1;HPM_P2
2022/10/20 00:01:45;;;;;;;227.62;16.55;;;;;;;2.08;81.36;101353.02;2129550;83;21382;-75
2022/10/20 00:04:46;;;;;;;154.93;16.07;;;;;;;1.99;81.48;101349.12;2129328;83;21058;-76
2022/10/20 00:07:47;;;;;;;146.82;14.58;;;;;;;1.96;81.62;101350.59;2129356;83;21156;-76
2022/10/20 00:10:55;;;;;;;;;;;;;;;1.92;81.62;101356.09;2134771;83;21461;-76
2022/10/20 00:13:58;;;;;;;278.80;17.82;;;;;;;1.91;81.92;101354.38;2129465;83;20104;-76
2022/10/20 00:17:00;;;;;;;258.70;18.57;;;;;;;1.88;82.04;101357.16;2137692;83;20990;-76
2022/10/20 00:20:01;;;;;;;180.15;16.97;;;;;;;1.83;81.97;101350.88;2126730;83;21489;-76
2022/10/20 00:23:02;;;;;;;167.62;15.93;;;;;;;1.76;82.03;101351.64;2129842;83;21006;-76
2022/10/20 00:26:07;;;;;;;261.37;18.42;;;;;;;1.72;82.21;101339.66;2131251;83;21049;-76
2022/10/20 00:29:09;;;;;;;255.00;19.42;;;;;;;1.72;82.42;101342.27;2123736;83;21018;-75
2022/10/20 00:32:10;;;;;;;130.78;15.72;;;;;;;1.75;82.64;101346.51;2124534;83;21018;-76
2022/10/20 00:35:10;;;;;;;;;;;;;;;1.76;82.66;101340.34;2119851;83;21545;-76
2022/10/20 00:38:11;;;;;;;168.40;18.05;;;;;;;1.81;82.91;101342.72;2114937;83;20110;-76
2022/10/20 00:41:19;;;;;;;200.10;17.00;;;;;;;1.82;82.92;101343.94;2113409;83;21015;-76
2022/10/20 00:44:57;;;;;;;166.40;16.12;;;;;;;1.85;82.95;101342.93;2118017;83;21514;-76
2022/10/20 00:48:14;;;;;;;141.70;16.15;;;;;;;1.86;82.91;101341.55;2115830;83;21430;-76
2022/10/20 00:51:19;;;;;;;127.42;16.12;;;;;;;1.84;82.81;101329.47;2117035;83;21010;-76
2022/10/20 00:54:25;;;;;;;61.58;14.78;;;;;;;1.84;82.74;101334.23;2119176;83;21014;-76
2022/10/20 00:57:28;;;;;;;64.97;13.35;;;;;;;1.79;82.67;101339.70;2118203;83;21021;-75
2022/10/20 01:00:31;;;;;;;40.40;13.25;;;;;;;1.79;82.90;101343.62;2111882;83;21149;-75
2022/10/20 01:03:46;;;;;;;34.20;11.55;;;;;;;1.79;82.97;101337.55;2109347;83;21336;-76
2022/10/20 01:06:50;;;;;;;28.75;11.43;;;;;;;1.76;82.76;101338.55;2116155;83;21590;-76
2022/10/20 01:09:52;;;;;;;31.07;12.25;;;;;;;1.76;82.66;101339.87;2121726;83;21047;-76
2022/10/20 01:13:02;;;;;;;19.92;12.58;;;;;;;1.73;82.61;101333.48;2116168;83;21564;-76
2022/10/20 01:16:17;;;;;;;26.12;11.73;;;;;;;1.73;82.56;101331.34;2114324;83;21027;-76
2022/10/20 01:19:59;;;;;;;21.48;11.53;;;;;;;1.65;82.28;101333.04;2111391;83;21049;-76
2022/10/20 01:23:19;;;;;;;23.02;11.73;;;;;;;1.49;82.10;101326.47;2118697;83;21601;-76
2022/10/20 01:26:48;;;;;;;85.53;12.87;;;;;;;1.41;82.40;101329.06;2119000;83;21074;-76
2022/10/20 01:30:17;;;;;;;202.35;16.07;;;;;;;1.37;82.40;101324.92;2126957;82;21146;-76
2022/10/20 01:33:41;;;;;;;100.27;14.75;;;;;;;1.34;82.70;101337.23;2115315;82;21580;-76
2022/10/20 01:36:58;;;;;;;97.82;14.13;;;;;;;1.32;82.86;101327.33;2133516;82;21028;-76
2022/10/20 01:40:05;;;;;;;81.63;13.38;;;;;;;1.27;82.76;101323.25;2134087;82;21046;-77
2022/10/20 01:43:12;;;;;;;93.55;13.62;;;;;;;1.14;82.62;101326.93;2131568;82;21053;-77
2022/10/20 01:46:16;;;;;;;81.17;14.73;;;;;;;1.00;82.66;101317.16;2138457;82;21080;-77
2022/10/20 01:49:18;;;;;;;93.87;14.53;;;;;;;0.88;82.66;101312.55;2125578;82;21346;-77
2022/10/20 01:52:21;;;;;;;77.40;13.65;;;;;;;0.80;82.77;101307.69;2132564;82;20939;-77
2022/10/20 01:55:23;;;;;;;117.10;16.62;;;;;;;0.77;82.97;101309.15;2134324;82;21073;-77
2022/10/20 01:59:17;;;;;;;37.50;14.28;;;;;;;0.75;83.10;101312.28;2133250;82;21627;-77
2022/10/20 02:03:11;;;;;;;23.38;12.50;;;;;;;0.75;83.22;101305.76;2100256;84;21041;-77
2022/10/20 02:06:48;;;;;;;18.75;12.28;;;;;;;0.76;83.30;101300.94;2133826;82;21116;-76
2022/10/20 02:09:55;;;;;;;15.98;11.05;;;;;;;0.84;83.36;101307.07;2134736;82;21116;-77
2022/10/20 02:13:00;;;;;;;17.95;11.70;;;;;;;0.87;83.16;101304.30;2128883;82;21034;-77
2022/10/20 02:16:06;;;;;;;23.40;11.85;;;;;;;0.86;83.11;101310.46;2130615;82;21097;-77
2022/10/20 02:19:10;;;;;;;34.53;11.50;;;;;;;0.89;83.29;101309.84;2127257;82;21043;-77
2022/10/20 02:22:14;;;;;;;18.57;11.53;;;;;;;0.90;83.54;101304.15;2132061;82;21073;-77
2022/10/20 02:25:15;;;;;;;18.25;11.00;;;;;;;0.92;83.51;101308.01;2130423;82;21080;-77
2022/10/20 02:28:19;;;;;;;16.50;10.78;;;;;;;0.92;83.36;101308.01;2128802;82;21101;-77
2022/10/20 02:31:21;;;;;;;17.42;10.75;;;;;;;0.93;83.16;101309.25;2101994;82;21085;-77
2022/10/20 02:34:27;;;;;;;18.05;11.33;;;;;;;0.95;83.03;101311.31;2101244;84;20977;-77
2022/10/20 02:37:28;;;;;;;18.77;11.28;;;;;;;0.91;82.75;101303.72;2100639;83;21060;-77
2022/10/20 02:40:29;;;;;;;;;;;;;;;0.87;82.73;101309.53;2106007;83;21001;-77
2022/10/20 02:43:30;;;;;;;27.17;10.82;;;;;;;0.85;82.70;101318.77;2099171;84;20530;-77
2022/10/20 02:46:31;;;;;;;17.65;11.70;;;;;;;0.81;82.65;101313.75;2102712;83;21516;-77
2022/10/20 02:49:32;;;;;;;;;;;;;;;0.77;82.69;101316.98;2109347;83;21012;-77
2022/10/20 02:52:33;;;;;;;16.95;10.60;;;;;;;0.73;82.57;101319.34;2102726;83;20202;-77
2022/10/20 02:55:34;;;;;;;16.93;9.48;;;;;;;0.73;82.69;101313.28;2098109;84;21374;-77
2022/10/20 02:58:36;;;;;;;15.63;9.98;;;;;;;0.65;82.47;101311.06;2103063;83;20970;-76
2022/10/20 03:01:37;;;;;;;18.48;10.15;;;;;;;0.62;82.37;101308.56;2104853;83;21020;-76
2022/10/20 03:04:37;;;;;;;;;;;;;;;0.60;82.48;101311.27;2107835;83;21532;-77
2022/10/20 03:07:38;;;;;;;16.05;9.80;;;;;;;0.59;82.42;101316.13;2103694;83;20152;-77
2022/10/20 03:10:41;;;;;;;14.33;9.70;;;;;;;0.60;82.49;101309.13;2100671;84;20942;-77
2022/10/20 03:13:42;;;;;;;13.78;9.98;;;;;;;0.61;82.44;101312.11;2102458;84;21527;-77
2022/10/20 03:16:43;;;;;;;18.50;10.63;;;;;;;0.60;82.45;101310.43;2102881;84;21052;-77
2022/10/20 03:19:44;;;;;;;;;;;;;;;0.57;82.27;101310.58;2105680;83;22279;-77
2022/10/20 03:22:45;;;;;;;19.27;10.18;;;;;;;0.57;82.26;101310.58;2102006;83;20148;-77
2022/10/20 03:25:46;;;;;;;;;;;;;;;0.53;82.21;101310.33;2105445;83;21045;-77
2022/10/20 03:28:47;;;;;;;16.77;11.00;;;;;;;0.48;82.19;101313.61;2101799;83;20095;-77
2022/10/20 03:31:48;;;;;;;;;;;;;;;0.44;82.22;101320.75;2130341;82;21576;-76
2022/10/20 03:34:49;;;;;;;19.62;11.05;;;;;;;0.42;82.34;101323.45;2135141;82;20085;-77
2022/10/20 03:37:50;;;;;;;;;;;;;;;0.40;82.31;101321.83;2138688;82;21081;-77
2022/10/20 03:40:51;;;;;;;16.87;10.68;;;;;;;0.39;82.51;101323.56;2137978;82;20132;-77
2022/10/20 03:43:52;;;;;;;18.35;10.88;;;;;;;0.41;82.43;101330.03;2130336;82;21397;-77
2022/10/20 03:46:53;;;;;;;;;;;;;;;0.38;82.31;101332.33;2133851;82;21042;-77
2022/10/20 03:49:54;;;;;;;14.93;9.68;;;;;;;0.37;82.15;101334.56;2131150;82;20193;-77
2022/10/20 03:52:55;;;;;;;15.25;9.95;;;;;;;0.31;82.02;101341.38;2125346;82;21644;-77
2022/10/20 03:55:57;;;;;;;15.48;10.60;;;;;;;0.26;82.06;101335.52;2134703;82;21537;-77
2022/10/20 03:58:58;;;;;;;17.12;10.48;;;;;;;0.24;82.12;101337.81;2128868;82;21050;-77
2022/10/20 04:01:59;;;;;;;15.93;9.80;;;;;;;0.23;82.19;101336.97;2124997;82;21020;-77
2022/10/20 04:05:00;;;;;;;;;;;;;;;0.26;82.21;101337.29;2134543;82;21113;-77
2022/10/20 04:08:02;;;;;;;19.07;10.68;;;;;;;0.26;82.15;101342.05;2134066;82;20104;-77
2022/10/20 04:11:04;;;;;;;14.98;9.98;;;;;;;0.20;81.90;101331.43;2129796;82;21465;-77
2022/10/20 04:14:05;;;;;;;17.40;10.13;;;;;;;0.15;82.06;101332.56;2126133;82;21045;-77
2022/10/20 04:17:06;;;;;;;;;;;;;;;0.15;82.10;101327.34;2133667;82;21030;-77
2022/10/20 04:20:08;;;;;;;20.08;10.03;;;;;;;0.05;82.10;101328.20;2132321;82;20217;-77
2022/10/20 04:23:09;;;;;;;19.23;10.75;;;;;;;-0.06;82.01;101320.88;2134525;82;21112;-77
2022/10/20 04:26:13;;;;;;;15.53;9.95;;;;;;;-0.18;82.00;101323.18;2129170;82;21092;-77
2022/10/20 04:29:14;;;;;;;17.05;11.48;;;;;;;-0.20;82.19;101321.09;2125092;82;21108;-77
2022/10/20 04:32:15;;;;;;;47.98;30.08;;;;;;;-0.18;82.31;101318.80;2129112;83;21006;-78
2022/10/20 04:35:19;;;;;;;34.35;22.07;;;;;;;-0.14;82.70;101307.33;2132051;83;21089;-73
2022/10/20 04:38:22;;;;;;;34.48;21.97;;;;;;;-0.10;82.82;101307.56;2130151;83;21137;-78
2022/10/20 04:41:23;;;;;;;25.00;15.00;;;;;;;0.02;82.90;101305.31;2132421;83;21058;-78
2022/10/20 04:44:24;;;;;;;27.13;15.70;;;;;;;0.13;82.84;101299.14;2127831;83;21115;-79
2022/10/20 04:47:31;;;;;;;25.00;16.93;;;;;;;0.24;82.62;101296.05;2135788;83;21038;-81
2022/10/20 04:50:32;;;;;;;23.00;15.40;;;;;;;0.32;82.54;101293.45;2125820;83;21053;-78
2022/10/20 04:53:36;;;;;;;21.23;12.88;;;;;;;0.38;82.33;101289.24;2128101;83;21615;-79
2022/10/20 04:56:37;;;;;;;22.52;14.13;;;;;;;0.38;82.33;101286.63;2133758;83;21445;-76
2022/10/20 04:59:38;;;;;;;28.42;16.25;;;;;;;0.39;82.37;101287.47;2133229;83;21060;-79
2022/10/20 05:02:39;;;;;;;33.53;17.48;;;;;;;0.40;82.40;101292.64;2131222;83;21088;-79
2022/10/20 05:05:40;;;;;;;36.05;18.00;;;;;;;0.40;82.37;101292.64;2129467;83;21001;-77
2022/10/20 05:08:47;;;;;;;35.63;16.35;;;;;;;0.35;82.40;101289.39;2131734;83;21078;-80
2022/10/20 05:11:52;;;;;;;31.55;18.35;;;;;;;0.34;82.14;101286.41;2136319;83;21492;-80
2022/10/20 05:14:53;;;;;;;38.28;18.82;;;;;;;0.35;82.06;101287.25;2125645;83;21095;-81
2022/10/20 05:17:54;;;;;;;43.52;20.62;;;;;;;0.33;82.16;101280.78;2133687;83;21002;-80
2022/10/20 05:20:55;;;;;;;;;;;;;;;0.31;82.39;101280.03;2135183;83;21073;-81
2022/10/20 05:24:01;;;;;;;37.53;18.62;;;;;;;0.34;82.57;101275.09;2128441;83;20093;-79
2022/10/20 05:27:02;;;;;;;40.70;19.12;;;;;;;0.32;82.58;101275.18;2133023;83;21343;-82
2022/10/20 05:30:04;;;;;;;32.20;16.90;;;;;;;0.34;82.54;101269.87;2128622;83;21037;-82
2022/10/20 05:33:05;;;;;;;32.73;16.00;;;;;;;0.33;82.22;101271.64;2128265;83;21156;-78
2022/10/20 05:36:12;;;;;;;31.55;16.73;;;;;;;0.33;82.03;101279.47;2124429;83;21613;-82
2022/10/20 05:39:13;;;;;;;27.48;15.68;;;;;;;0.33;81.91;101272.95;2120932;83;21547;-82
2022/10/20 05:42:14;;;;;;;29.07;16.60;;;;;;;0.37;82.13;101274.51;2129066;83;21444;-82
2022/10/20 05:45:15;;;;;;;26.62;14.95;;;;;;;0.43;82.17;101282.05;2122332;83;22010;-78
2022/10/20 05:48:16;;;;;;;18.30;10.32;;;;;;;0.48;82.15;101280.53;2124583;83;21013;-81
2022/10/20 05:51:21;;;;;;;15.85;10.08;;;;;;;0.58;82.57;101284.84;2129706;83;21105;-82
2022/10/20 05:54:22;;;;;;;22.22;11.35;;;;;;;0.76;83.13;101282.65;2126660;83;21509;-82
2022/10/20 05:57:24;;;;;;;18.40;11.00;;;;;;;1.19;83.75;101284.87;2115484;82;21094;-81
2022/10/20 06:00:29;;;;;;;18.50;10.85;;;;;;;1.77;84.21;101286.62;2124190;83;20973;-81
2022/10/20 06:03:28;;;;;;;32.50;16.67;;;;;;;2.39;84.06;101291.11;2121586;83;21065;-81
2022/10/20 06:06:30;;;;;;;30.32;16.20;;;;;;;2.94;83.82;101290.61;2126854;83;20967;-80
2022/10/20 06:09:31;;;;;;;33.08;17.05;;;;;;;3.51;83.68;101295.95;2129826;83;21033;-80
2022/10/20 06:12:35;;;;;;;31.90;17.98;;;;;;;4.03;83.07;101292.77;2125115;83;21401;-81
2022/10/20 06:15:36;;;;;;;23.45;14.78;;;;;;;4.54;82.40;101293.49;2125087;83;21625;-81
2022/10/20 06:18:38;;;;;;;21.40;11.70;;;;;;;5.02;81.94;101303.05;2126789;83;21518;-82
2022/10/20 06:21:40;;;;;;;15.75;11.00;;;;;;;5.41;81.39;101297.38;2120665;83;21720;-82
2022/10/20 06:24:41;;;;;;;24.35;14.58;;;;;;;5.74;80.59;101293.34;2131578;83;21002;-82
2022/10/20 06:27:43;;;;;;;22.52;12.43;;;;;;;6.07;80.05;101296.75;2128836;83;21048;-82
2022/10/20 06:30:44;;;;;;;20.97;10.35;;;;;;;6.42;79.51;101297.33;2115860;83;21146;-82
2022/10/20 06:33:46;;;;;;;14.25;9.28;;;;;;;6.66;79.11;101288.95;2097902;83;21079;-82
2022/10/20 06:36:48;;;;;;;16.62;10.20;;;;;;;7.03;78.82;101283.58;2096404;83;21549;-82
2022/10/20 06:39:49;;;;;;;14.25;10.53;;;;;;;7.53;78.59;101280.69;2100735;84;21032;-82
2022/10/20 06:42:51;;;;;;;13.93;9.13;;;;;;;8.05;78.34;101283.19;2096897;84;21085;-82
2022/10/20 06:45:57;;;;;;;13.75;9.70;;;;;;;8.29;77.51;101281.72;2098765;84;20993;-83
2022/10/20 06:49:02;;;;;;;14.13;8.90;;;;;;;8.47;76.78;101292.15;2095773;84;20983;-82
2022/10/20 06:52:03;;;;;;;14.87;9.45;;;;;;;8.56;75.70;101287.08;2099088;84;21457;-83
2022/10/20 06:55:06;;;;;;;12.73;8.38;;;;;;;8.51;75.21;101298.05;2098911;83;21065;-82
2022/10/20 06:58:07;;;;;;;13.15;8.55;;;;;;;8.41;74.69;101305.88;2098167;83;21084;-83
2022/10/20 07:01:18;;;;;;;12.55;7.58;;;;;;;8.38;75.26;101302.13;2096929;83;21039;-83
2022/10/20 07:04:20;;;;;;;11.65;8.40;;;;;;;8.73;74.96;101299.80;2095249;84;21117;-83
2022/10/20 07:07:21;;;;;;;11.33;7.75;;;;;;;8.83;75.01;101307.31;2102583;83;21055;-83
2022/10/20 07:10:22;;;;;;;9.23;7.67;;;;;;;9.08;74.71;101318.04;2098473;84;21089;-83
2022/10/20 07:13:23;;;;;;;16.42;7.62;;;;;;;9.18;74.28;101318.13;2097947;83;21041;-83
2022/10/20 07:16:29;;;;;;;10.15;7.55;;;;;;;9.16;73.56;101316.09;2102891;84;21098;-83
2022/10/20 07:19:33;;;;;;;13.25;7.25;;;;;;;8.79;72.57;101316.98;2095839;84;21100;-83
2022/10/20 07:22:37;;;;;;;10.78;7.08;;;;;;;8.70;72.91;101314.12;2098657;84;21026;-82
2022/10/20 07:25:38;;;;;;;10.38;5.83;;;;;;;8.70;73.59;101315.89;2095634;83;21042;-83
2022/10/20 07:28:43;;;;;;;13.60;6.78;;;;;;;8.64;72.67;101307.97;2098217;83;21023;-83
2022/10/20 07:31:48;;;;;;;10.30;6.22;;;;;;;8.74;73.40;101312.05;2109910;83;21030;-83
2022/10/20 07:34:49;;;;;;;12.37;6.42;;;;;;;8.72;72.18;101306.87;2124840;83;21052;-83
2022/10/20 07:37:50;;;;;;;8.78;5.67;;;;;;;8.62;72.59;101307.77;2122654;83;21049;-83
2022/10/20 07:40:52;;;;;;;13.90;5.53;;;;;;;8.67;71.99;101302.92;2121710;83;20997;-83
2022/10/20 07:43:55;;;;;;;8.78;5.35;;;;;;;8.76;72.88;101307.48;2100727;83;21875;-84
2022/10/20 07:46:56;;;;;;;6.67;5.42;;;;;;;8.80;71.81;101306.25;2132956;83;21659;-85
2022/10/20 07:50:01;;;;;;;9.75;4.83;;;;;;;8.81;72.08;101298.66;2120845;83;21027;-86
2022/10/20 07:53:05;;;;;;;13.05;6.47;;;;;;;9.12;72.82;101302.73;2119646;83;21473;-85
2022/10/20 07:56:08;;;;;;;9.08;5.53;;;;;;;9.43;72.45;101300.98;2118591;83;22380;-86
2022/10/20 07:59:11;;;;;;;10.63;5.85;;;;;;;9.80;70.55;101276.16;2123343;83;21049;-86
2022/10/20 08:02:14;;;;;;;13.40;7.17;;;;;;;9.80;70.55;101276.16;2124575;83;21021;-85
2022/10/20 08:05:15;;;;;;;11.50;7.78;;;;;;;9.96;70.57;101297.34;2121525;83;21488;-84
2022/10/20 08:08:16;;;;;;;11.22;7.78;;;;;;;10.19;70.54;101276.74;2126223;83;20991;-85
2022/10/20 08:11:19;;;;;;;12.37;7.37;;;;;;;10.19;70.54;101276.74;2128736;83;21038;-84
2022/10/20 08:14:20;;;;;;;9.83;6.58;;;;;;;10.35;70.77;101269.62;2120883;83;21133;-84
2022/10/20 08:17:21;;;;;;;13.72;6.87;;;;;;;10.57;69.63;101272.52;2123003;83;21592;-84
2022/10/20 08:20:22;;;;;;;14.05;7.37;;;;;;;10.67;68.15;101270.23;2122341;83;22318;-84
2022/10/20 08:23:23;;;;;;;14.73;6.50;;;;;;;10.60;67.84;101266.94;2122979;83;20987;-84
2022/10/20 08:26:25;;;;;;;12.05;6.25;;;;;;;10.57;67.88;101268.05;2129246;83;21635;-84
2022/10/20 08:29:27;;;;;;;10.63;6.83;;;;;;;10.71;66.40;101268.13;2128222;83;22342;-85
2022/10/20 08:32:30;;;;;;;12.82;6.30;;;;;;;10.71;66.69;101262.33;2122127;83;21124;-84
2022/10/20 08:35:33;;;;;;;11.97;6.50;;;;;;;10.71;68.33;101269.45;2108395;83;21002;-84
2022/10/20 08:38:38;;;;;;;10.53;6.28;;;;;;;10.94;68.48;101267.34;2096810;83;21065;-84
2022/10/20 08:41:43;;;;;;;15.93;8.18;;;;;;;10.88;66.83;101262.61;2098137;83;21020;-83
2022/10/20 08:44:46;;;;;;;15.30;6.80;;;;;;;10.80;66.57;101273.09;2100440;83;21020;-83
2022/10/20 08:47:51;;;;;;;9.58;6.12;;;;;;;10.80;67.11;101272.59;2123002;83;21047;-83
2022/10/20 08:50:53;;;;;;;15.60;7.05;;;;;;;10.94;67.05;101272.66;2117778;83;21080;-83
2022/10/20 08:53:58;;;;;;;9.58;6.30;;;;;;;11.02;66.40;101266.65;2092933;83;21053;-83
2022/10/20 08:57:00;;;;;;;12.05;6.33;;;;;;;11.19;66.89;101271.23;2122182;83;21044;-83
2022/10/20 09:00:17;;;;;;;11.83;6.67;;;;;;;11.42;66.60;101267.25;2110131;83;21104;-84
2022/10/20 09:03:27;;;;;;;12.00;7.42;;;;;;;11.72;64.52;101268.50;2119014;83;21532;-84
2022/10/20 09:06:30;;;;;;;10.40;6.78;;;;;;;11.70;64.99;101268.63;2094555;83;21065;-84
2022/10/20 09:09:32;;;;;;;15.63;7.78;;;;;;;11.51;65.76;101268.20;2123306;83;21542;-84
2022/10/20 09:12:34;;;;;;;13.72;7.37;;;;;;;11.64;65.58;101258.09;2120553;83;21719;-84
2022/10/20 09:15:37;;;;;;;12.93;7.37;;;;;;;11.77;64.67;101252.45;2117397;83;21469;-84
2022/10/20 09:18:38;;;;;;;13.13;7.12;;;;;;;11.64;64.69;101252.77;2115996;82;21002;-82
2022/10/20 09:21:40;;;;;;;17.02;7.83;;;;;;;11.66;64.86;101256.13;2091870;83;21076;-81
2022/10/20 09:24:43;;;;;;;15.43;7.00;;;;;;;11.92;65.06;101258.15;2114662;83;21025;-83
2022/10/20 09:27:44;;;;;;;10.80;5.78;;;;;;;12.14;64.19;101254.75;2107680;83;21560;-85
2022/10/20 09:30:46;;;;;;;13.10;6.17;;;;;;;12.29;63.00;101255.41;2109995;83;21092;-85
2022/10/20 09:33:47;;;;;;;13.45;5.47;;;;;;;12.47;63.24;101253.25;2117150;83;21021;-84
2022/10/20 09:36:50;;;;;;;8.90;4.78;;;;;;;12.24;62.33;101259.50;2121107;83;21052;-84
2022/10/20 09:39:58;;;;;;;11.10;5.00;;;;;;;12.16;61.85;101256.75;2118797;83;21532;-83
2022/10/20 09:43:07;;;;;;;8.60;4.65;;;;;;;12.10;62.07;101247.04;2114752;83;21023;-83
2022/10/20 09:46:11;;;;;;;9.33;4.30;;;;;;;12.35;62.64;101247.31;2113363;83;22336;-83
2022/10/20 09:49:38;;;;;;;7.10;3.52;;;;;;;12.47;60.42;101233.28;2122582;83;21006;-83
2022/10/20 09:52:46;;;;;;;7.40;3.80;;;;;;;12.42;60.96;101236.92;2098085;83;21084;-83
2022/10/20 09:55:47;;;;;;;8.10;3.70;;;;;;;12.51;60.41;101232.00;2092134;83;21442;-83
2022/10/20 09:58:48;;;;;;;12.25;5.80;;;;;;;12.38;58.45;101236.36;2114863;83;21023;-84
2022/10/20 10:02:04;;;;;;;6.87;3.20;;;;;;;12.37;58.05;101224.55;2114195;83;21037;-84
2022/10/20 10:05:19;;;;;;;6.53;3.33;;;;;;;12.47;59.39;101229.28;2110791;83;21125;-84
2022/10/20 10:08:25;;;;;;;6.22;3.58;;;;;;;12.33;57.90;101233.31;2113407;83;21036;-83
2022/10/20 10:11:35;;;;;;;7.05;3.12;;;;;;;12.10;58.91;101236.40;2118706;83;21060;-84
2022/10/20 10:14:52;;;;;;;5.58;3.62;;;;;;;11.96;58.57;101230.75;2115807;83;20987;-84
2022/10/20 10:17:55;;;;;;;6.10;3.30;;;;;;;12.09;59.04;101228.09;2093669;83;21061;-83
2022/10/20 10:21:16;;;;;;;5.15;3.10;;;;;;;12.31;58.23;101225.99;2115692;82;21084;-84
2022/10/20 10:24:41;;;;;;;5.65;2.80;;;;;;;12.25;56.44;101214.62;2111161;83;21033;-85
2022/10/20 10:27:59;;;;;;;6.37;3.47;;;;;;;12.29;55.95;101210.66;2128442;83;21124;-83
2022/10/20 10:31:20;;;;;;;6.25;3.52;;;;;;;12.39;57.01;101204.78;2113232;82;21033;-82
2022/10/20 10:34:30;;;;;;;7.40;4.10;;;;;;;12.42;56.01;101201.81;2094399;84;21038;-83
2022/10/20 10:37:36;;;;;;;5.03;3.40;;;;;;;12.41;55.40;101196.13;2092114;84;21620;-82
2022/10/20 10:41:15;;;;;;;5.60;3.30;;;;;;;12.40;55.27;101196.30;2088847;84;21048;-83
2022/10/20 10:44:43;;;;;;;6.47;3.72;;;;;;;12.36;55.51;101194.91;2094280;84;21557;-83
2022/10/20 10:48:13;;;;;;;;;;;;;;;12.37;55.70;101188.12;2097270;84;21038;-83
2022/10/20 10:51:44;;;;;;;5.72;3.65;;;;;;;12.28;56.07;101184.55;2096429;84;20130;-84
2022/10/20 10:54:57;;;;;;;4.78;3.33;;;;;;;12.42;55.86;101191.67;2089752;84;21513;-83
2022/10/20 10:58:15;;;;;;;6.25;3.80;;;;;;;12.34;55.82;101179.11;2054287;84;21045;-83
2022/10/20 11:01:54;;;;;;;7.78;3.25;;;;;;;12.23;55.79;101177.51;2088723;84;21583;-82
2022/10/20 11:05:22;;;;;;;7.20;3.75;;;;;;;12.13;55.82;101177.23;2085603;84;21107;-84
2022/10/20 11:08:49;;;;;;;6.90;3.45;;;;;;;12.11;56.52;101162.27;2026863;86;21489;-83
2022/10/20 11:12:23;;;;;;;7.97;3.42;;;;;;;12.08;55.83;101157.25;2058574;84;21018;-82
2022/10/20 11:15:58;;;;;;;6.15;3.65;;;;;;;12.08;54.63;101149.27;2059444;85;21038;-83
2022/10/20 11:19:20;;;;;;;5.72;3.25;;;;;;;11.93;54.75;101148.11;2094480;84;21030;-82
2022/10/20 11:22:52;;;;;;;7.33;3.37;;;;;;;11.88;55.32;101145.91;2096810;84;21038;-83
2022/10/20 11:26:25;;;;;;;5.92;3.47;;;;;;;12.06;56.32;101139.77;2097889;84;21564;-83
2022/10/20 11:29:46;;;;;;;4.60;3.40;;;;;;;12.33;55.40;101133.51;2060167;84;21041;-87
2022/10/20 11:33:07;;;;;;;;;;;;;;;12.44;53.11;101127.95;2123074;82;21057;-84
2022/10/20 11:36:16;;;;;;;4.03;2.80;;;;;;;12.40;54.02;101120.45;2127469;82;20145;-85
2022/10/20 11:39:35;;;;;;;5.35;2.62;;;;;;;12.38;55.03;101119.25;2131821;82;21124;-84
2022/10/20 11:42:55;;;;;;;7.53;3.58;;;;;;;12.34;54.29;101110.75;2107834;82;21081;-85
2022/10/20 11:46:13;;;;;;;6.08;3.00;;;;;;;12.40;53.53;101102.64;2124131;82;21548;-85
2022/10/20 11:49:14;;;;;;;6.03;3.15;;;;;;;12.49;54.35;101099.55;2123440;82;21105;-84
2022/10/20 11:52:38;;;;;;;5.10;2.98;;;;;;;12.59;54.46;101088.31;2128340;82;21000;-84
2022/10/20 11:56:15;;;;;;;6.22;2.60;;;;;;;12.50;53.85;101074.11;2120719;82;21049;-84
2022/10/20 12:00:07;;;;;;;8.68;3.58;;;;;;;12.37;53.90;101073.68;2055775;85;21098;-85
2022/10/20 12:03:35;;;;;;;5.50;3.05;;;;;;;12.25;53.93;101061.63;2063332;82;21132;-84
2022/10/20 12:07:03;;;;;;;5.05;2.95;;;;;;;12.24;54.32;101078.56;2102802;82;21042;-86
2022/10/20 12:10:28;;;;;;;4.50;2.80;;;;;;;12.13;53.64;101067.66;2092596;82;21489;-84
2022/10/20 12:14:16;;;;;;;5.03;3.22;;;;;;;12.09;54.14;101055.66;2120654;82;20981;-84
2022/10/20 12:17:31;;;;;;;6.22;3.20;;;;;;;12.26;53.35;101044.66;2117309;82;21069;-84
2022/10/20 12:20:43;;;;;;;5.97;3.33;;;;;;;12.40;52.71;101039.27;2121359;82;21029;-83
2022/10/20 12:24:46;;;;;;;7.10;3.75;;;;;;;12.46;53.90;101047.45;2072646;82;21666;-85
2022/10/20 12:28:23;;;;;;;4.83;2.80;;;;;;;12.49;53.65;101039.66;2113850;82;21106;-84
2022/10/20 12:32:24;;;;;;;6.60;2.90;;;;;;;12.61;52.68;101029.57;2098767;82;21558;-82
2022/10/20 12:35:37;;;;;;;5.58;3.62;;;;;;;12.36;53.28;101033.43;2097305;82;21356;-83
2022/10/20 12:38:42;;;;;;;7.45;2.87;;;;;;;12.32;53.25;101026.23;2072127;84;21536;-82
2022/10/20 12:42:08;;;;;;;4.28;3.02;;;;;;;12.37;52.96;101020.95;2056445;85;21089;-84
2022/10/20 12:45:31;;;;;;;3.77;2.45;;;;;;;12.23;52.82;101010.37;2031380;85;21079;-83
2022/10/20 12:48:38;;;;;;;4.10;2.60;;;;;;;12.12;52.67;101008.80;2065794;84;21040;-83
2022/10/20 12:51:52;;;;;;;5.62;2.75;;;;;;;12.07;51.86;101009.75;2089497;84;21081;-84
2022/10/20 12:55:29;;;;;;;6.03;2.50;;;;;;;12.02;52.44;101004.06;2061598;84;21528;-84
2022/10/20 12:58:43;;;;;;;2.58;2.30;;;;;;;12.00;52.04;100992.76;2005361;84;21085;-83
2022/10/20 13:02:16;;;;;;;3.25;2.30;;;;;;;12.11;52.59;100992.01;2040605;84;21059;-84
2022/10/20 13:05:44;;;;;;;4.58;3.15;;;;;;;12.23;51.57;100985.10;2060291;84;21127;-84
2022/10/20 13:09:10;;;;;;;3.30;2.25;;;;;;;12.13;51.38;100980.36;2092526;84;21117;-83
2022/10/20 13:12:28;;;;;;;8.98;3.10;;;;;;;12.08;51.63;100980.35;2085985;84;21654;-84
2022/10/20 13:15:47;;;;;;;5.92;2.55;;;;;;;12.17;51.71;100968.44;2093960;84;21493;-83
2022/10/20 13:18:50;;;;;;;6.05;3.20;;;;;;;12.21;51.41;100983.09;2096432;84;21026;-83
2022/10/20 13:21:51;;;;;;;4.30;2.80;;;;;;;12.17;51.13;100975.09;2082073;84;21069;-84
2022/10/20 13:24:54;;;;;;;5.75;3.05;;;;;;;12.28;51.70;100973.50;2090917;84;21084;-84
2022/10/20 13:28:13;;;;;;;4.33;2.75;;;;;;;12.25;51.61;100979.14;2091590;84;21547;-85
2022/10/20 13:31:48;;;;;;;5.08;2.98;;;;;;;12.09;51.16;100978.52;2094288;84;21086;-84
2022/10/20 13:35:09;;;;;;;6.42;3.20;;;;;;;11.97;50.91;100972.63;2101200;83;20983;-84
2022/10/20 13:38:26;;;;;;;6.62;2.92;;;;;;;11.85;50.73;100978.69;2090772;84;21049;-84
2022/10/20 13:41:44;;;;;;;6.35;3.15;;;;;;;11.76;50.98;100974.23;2089640;83;21136;-84
2022/10/20 13:44:57;;;;;;;9.08;3.85;;;;;;;11.75;51.37;100959.28;2089448;84;21006;-83
2022/10/20 13:48:46;;;;;;;7.90;3.70;;;;;;;11.86;51.46;100959.08;2092499;83;21085;-83
2022/10/20 13:51:52;;;;;;;9.05;3.30;;;;;;;11.85;51.33;100957.41;2094407;84;21069;-84
2022/10/20 13:54:55;;;;;;;10.60;3.60;;;;;;;11.85;51.00;100951.20;2094623;83;21109;-83
2022/10/20 13:58:10;;;;;;;6.03;3.42;;;;;;;11.88;51.52;100954.91;2097774;84;21592;-85
2022/10/20 14:01:18;;;;;;;7.12;3.37;;;;;;;11.85;51.16;100946.78;2084442;84;21105;-83
2022/10/20 14:04:35;;;;;;;5.35;3.33;;;;;;;11.81;51.44;100947.20;2088734;84;21163;-83
2022/10/20 14:07:42;;;;;;;7.28;3.72;;;;;;;11.71;51.24;100953.92;2085026;83;21126;-84
2022/10/20 14:11:03;;;;;;;8.73;3.95;;;;;;;11.60;51.27;100947.05;2090766;83;21026;-84
2022/10/20 14:14:04;;;;;;;5.65;3.50;;;;;;;11.51;51.37;100947.94;2086858;83;21090;-84
2022/10/20 14:17:07;;;;;;;6.08;3.65;;;;;;;11.45;51.74;100937.92;2089117;84;21021;-84
2022/10/20 14:20:20;;;;;;;7.05;3.22;;;;;;;11.43;52.16;100921.28;2090963;84;21770;-84
2022/10/20 14:23:24;;;;;;;5.17;3.00;;;;;;;11.47;52.42;100929.31;2077853;84;21692;-84
2022/10/20 14:26:25;;;;;;;8.08;3.72;;;;;;;11.40;51.81;100933.55;2087751;84;21497;-84
2022/10/20 14:29:32;;;;;;;8.08;3.37;;;;;;;11.35;51.82;100929.21;2084644;83;21754;-84
2022/10/20 14:32:38;;;;;;;5.75;3.20;;;;;;;11.25;51.54;100927.11;2094067;83;21029;-84
2022/10/20 14:35:43;;;;;;;4.75;3.02;;;;;;;11.15;51.75;100927.16;2132731;83;21048;-84
2022/10/20 14:38:49;;;;;;;6.10;2.72;;;;;;;11.09;51.72;100920.63;2123733;83;21025;-84